<?xml version="1.0" encoding="UTF-8" standalone="no" ?>
<gpx xmlns="http://www.topografix.com/GPX/1/1" xmlns:xsi="http://www.w3.org/2001/XMLSchema-instance" xsi:schemaLocation="http://www.topografix.com/GPX/1/1 http://www.topografix.com/GPX/1/1/gpx.xsd" version="1.1" creator="VisuGPX - https://www.visugpx.com">
  <metadata>
    <name>Petite balade à pieds</name>
    <desc><![CDATA[Balade autour de Montreuil (Madelaine)]]></desc>
  </metadata>
  <trk>
    <name><![CDATA[Sequence 2]]></name>
    <trkseg>
      <trkpt lat="50.46003" lon="1.75821">
        <ele>50</ele>
        <time>2015-02-25T17:38:20Z</time>
      </trkpt>
      <trkpt lat="50.46017" lon="1.75826">
        <ele>46</ele>
        <time>2015-02-25T17:38:36Z</time>
      </trkpt>
      <trkpt lat="50.46027" lon="1.75831">
        <ele>47</ele>
        <time>2015-02-25T17:38:45Z</time>
      </trkpt>
      <trkpt lat="50.46038" lon="1.75841">
        <ele>47</ele>
        <time>2015-02-25T17:38:59Z</time>
      </trkpt>
      <trkpt lat="50.46043" lon="1.75851">
        <ele>50</ele>
        <time>2015-02-25T17:39:05Z</time>
      </trkpt>
      <trkpt lat="50.46064" lon="1.75867">
        <ele>51</ele>
        <time>2015-02-25T17:39:23Z</time>
      </trkpt>
      <trkpt lat="50.4607" lon="1.75867">
        <ele>41</ele>
        <time>2015-02-25T17:39:31Z</time>
      </trkpt>
      <trkpt lat="50.46066" lon="1.75881">
        <ele>38</ele>
        <time>2015-02-25T17:39:41Z</time>
      </trkpt>
      <trkpt lat="50.46073" lon="1.75895">
        <ele>38</ele>
        <time>2015-02-25T17:39:51Z</time>
      </trkpt>
      <trkpt lat="50.46081" lon="1.75907">
        <ele>39</ele>
        <time>2015-02-25T17:40:00Z</time>
      </trkpt>
      <trkpt lat="50.46085" lon="1.75927">
        <ele>39</ele>
        <time>2015-02-25T17:40:12Z</time>
      </trkpt>
      <trkpt lat="50.46091" lon="1.75944">
        <ele>40</ele>
        <time>2015-02-25T17:40:22Z</time>
      </trkpt>
      <trkpt lat="50.46099" lon="1.75958">
        <ele>42</ele>
        <time>2015-02-25T17:40:32Z</time>
      </trkpt>
      <trkpt lat="50.4611" lon="1.75973">
        <ele>41</ele>
        <time>2015-02-25T17:40:44Z</time>
      </trkpt>
      <trkpt lat="50.46124" lon="1.76004">
        <ele>44</ele>
        <time>2015-02-25T17:41:04Z</time>
      </trkpt>
      <trkpt lat="50.46125" lon="1.76006">
        <ele>43</ele>
        <time>2015-02-25T17:41:05Z</time>
      </trkpt>
      <trkpt lat="50.46132" lon="1.76022">
        <ele>45</ele>
        <time>2015-02-25T17:41:17Z</time>
      </trkpt>
      <trkpt lat="50.46137" lon="1.76041">
        <ele>40</ele>
        <time>2015-02-25T17:41:27Z</time>
      </trkpt>
      <trkpt lat="50.4614" lon="1.7606">
        <ele>35</ele>
        <time>2015-02-25T17:41:38Z</time>
      </trkpt>
      <trkpt lat="50.46144" lon="1.76073">
        <ele>38</ele>
        <time>2015-02-25T17:41:49Z</time>
      </trkpt>
      <trkpt lat="50.46146" lon="1.76081">
        <ele>39</ele>
        <time>2015-02-25T17:42:01Z</time>
      </trkpt>
      <trkpt lat="50.46145" lon="1.76093">
        <ele>45</ele>
        <time>2015-02-25T17:42:11Z</time>
      </trkpt>
      <trkpt lat="50.4614" lon="1.76129">
        <ele>36</ele>
        <time>2015-02-25T17:42:30Z</time>
      </trkpt>
      <trkpt lat="50.46147" lon="1.76144">
        <ele>31</ele>
        <time>2015-02-25T17:42:40Z</time>
      </trkpt>
      <trkpt lat="50.4615" lon="1.76151">
        <ele>32</ele>
        <time>2015-02-25T17:42:44Z</time>
      </trkpt>
      <trkpt lat="50.46158" lon="1.7617">
        <ele>34</ele>
        <time>2015-02-25T17:42:55Z</time>
      </trkpt>
      <trkpt lat="50.46165" lon="1.7618">
        <ele>33</ele>
        <time>2015-02-25T17:43:06Z</time>
      </trkpt>
      <trkpt lat="50.46174" lon="1.76194">
        <ele>34</ele>
        <time>2015-02-25T17:43:17Z</time>
      </trkpt>
      <trkpt lat="50.46183" lon="1.76213">
        <ele>38</ele>
        <time>2015-02-25T17:43:30Z</time>
      </trkpt>
      <trkpt lat="50.46195" lon="1.76217">
        <ele>33</ele>
        <time>2015-02-25T17:43:42Z</time>
      </trkpt>
      <trkpt lat="50.46187" lon="1.76248">
        <ele>32</ele>
        <time>2015-02-25T17:44:00Z</time>
      </trkpt>
      <trkpt lat="50.46187" lon="1.76249">
        <ele>34</ele>
        <time>2015-02-25T17:44:01Z</time>
      </trkpt>
    </trkseg>
  </trk>
</gpx>